Rio Rancho, NM (87124)

11:33 PM MDT on August 28, 2014 (GMT -0600)
Near Lincoln Middle School | Change Station
CLOSE
Current Station
Personal Weather Station
Location: Rio Rancho, NM
Elevation: 5472 ft
Nearby Weather Stations

Elev 5472 ft 35.26 °N, 106.69 °W | Updated 15 seconds ago

Clear
Clear
68.8 °F
Feels Like 68.8 °F
N
5.0
Wind Variable Wind from NW
Gusts 9.0 mph

Today
High -- | Low -- °F
--% Chance of Precip.
Yesterday
High -- | Low -- °F
Precip. -- in
6:36 AM 7:39 PM
Waxing Crescent, 12% visible
Pressure 30.18 in
Visibility 10.0 miles
Clouds Clear
Dew Point 45 °F
Humidity 42%
Rainfall 0.00 in
Snow Depth Not available.
UV 0 out of 12
Pollen 8.40 out of 12
Air Quality Not available.
Flu Activity Not available.
METAR KAEG 290515Z AUTO 31008KT 10SM CLR 19/06 A3018 RMK AO2 T01860063

More Conditions Fewer Conditions

Pressure 30.18 in
Visibility 10.0 miles
Clouds Clear
Dew Point 45 °F
Humidity 42%
Rainfall 0.00 in
Snow Depth Not available.
UV 0 out of 12
Pollen 8.40 out of 12
Air Quality Not available.
Flu Activity Not available.
METAR KAEG 290515Z AUTO 31008KT 10SM CLR 19/06 A3018 RMK AO2 T01860063

More Conditions Fewer Conditions

10-Day Weather Forecast

Almanac

Astronomy

Aug. 28, 2014 Rise Set
Actual Time 6:36 AM MDT 7:39 PM MDT
Civil Twilight 6:10 AM MDT 8:05 PM MDT
Nautical Twilight 5:39 AM MDT 8:36 PM MDT
Astronomical Twilight 5:06 AM MDT 9:08 PM MDT
Moon 9:23 AM MDT (8/28) 9:13 PM MDT (8/28)
Length of Visible Light 13h 54m
Length of Day
13h 02m
Tomorrow will be 2m 5s shorter.
Waxing Crescent, 12% of the Moon is Illuminated
Aug 29
Waxing Crescent
Sep 2
First Quarter
Sep 8
Full
Sep 15
Last Quarter
Sep 24
New

Yesterday's Extremes

State Highs State Lows

Community

WunderPhotos

Upload Photos

1,748,196 photos uploaded!

Nearby

Snow Depth

Station Depth Elevation
Quemazon 1 in 9500 ft
Santa Fe 1 in 11445 ft
Wesner Springs 1 in 11120 ft
Bateman 0 in 9300 ft
Gallegos Peak 0 in 9800 ft

Earthquake Activity

City Distance Mag. Time & Date
No recent earthquake activity has been reported nearby.
Minimum magnitude displayed is 2.5.

Coastal Water Temperatures

Place Temperature
No Stations Reporting

Nearby Weather Stations